createdAt,value
2023-04-05T00:01:03.065Z,4.00
2023-04-05T00:03:34.090Z,3.90
2023-04-05T00:06:05.604Z,4.30
2023-04-05T00:08:37.268Z,4.60
2023-04-05T00:11:08.006Z,4.80
2023-04-05T00:13:38.633Z,4.50
2023-04-05T00:16:10.743Z,4.20
2023-04-05T00:18:43.088Z,4.00
2023-04-05T00:21:14.759Z,4.00
2023-04-05T00:23:47.490Z,3.80
2023-04-05T00:26:18.600Z,3.50
2023-04-05T00:28:49.917Z,3.40
2023-04-05T00:31:21.551Z,3.70
2023-04-05T00:33:52.238Z,4.00
2023-04-05T00:36:24.435Z,3.90
2023-04-05T00:38:56.734Z,3.90
2023-04-05T00:41:27.660Z,4.00
2023-04-05T00:44:00.048Z,3.80
2023-04-05T00:46:31.495Z,3.80
2023-04-05T00:49:02.583Z,3.60
2023-04-05T00:51:34.982Z,3.30
2023-04-05T00:54:06.989Z,3.00
2023-04-05T00:56:37.724Z,2.70
2023-04-05T00:59:08.937Z,2.50
2023-04-05T01:01:42.338Z,2.50
2023-04-05T01:04:14.204Z,2.60
2023-04-05T01:06:56.240Z,2.30
2023-04-05T01:09:37.168Z,2.40
2023-04-05T01:12:11.231Z,2.40
2023-04-05T01:14:50.781Z,2.20
2023-04-05T01:17:24.496Z,1.90
2023-04-05T01:19:59.487Z,1.90
2023-04-05T01:23:11.587Z,1.90
2023-04-05T01:26:13.616Z,1.90
2023-04-05T01:29:01.241Z,1.90
2023-04-05T01:31:36.415Z,1.90
2023-04-05T01:34:10.970Z,1.80
2023-04-05T01:36:44.334Z,1.80
2023-04-05T01:39:18.082Z,1.80
2023-04-05T01:41:48.923Z,1.80
2023-04-05T01:44:19.518Z,2.10
2023-04-05T01:46:50.293Z,2.10
2023-04-05T01:49:21.389Z,2.00
2023-04-05T01:51:52.005Z,2.00
2023-04-05T01:54:22.641Z,1.90
2023-04-05T01:56:53.344Z,1.60
2023-04-05T01:59:24.004Z,1.60
2023-04-05T02:01:54.779Z,1.50
2023-04-05T02:04:25.500Z,1.50
2023-04-05T02:06:56.117Z,1.50
2023-04-05T02:09:26.768Z,1.50
2023-04-05T02:11:57.596Z,1.50
2023-04-05T02:14:28.303Z,1.50
2023-04-05T02:16:58.896Z,1.50
2023-04-05T02:19:31.200Z,1.40
2023-04-05T02:22:01.899Z,1.50
2023-04-05T02:24:32.636Z,1.40
2023-04-05T02:27:03.432Z,1.40
2023-04-05T02:29:35.014Z,1.50
2023-04-05T02:32:05.881Z,1.50
2023-04-05T02:34:37.276Z,1.50
2023-04-05T02:37:08.075Z,1.50
2023-04-05T02:39:38.710Z,1.50
2023-04-05T02:42:09.495Z,1.50
2023-04-05T02:44:40.215Z,1.60
2023-04-05T02:47:10.804Z,1.70
2023-04-05T02:49:41.630Z,1.60
2023-04-05T02:52:12.311Z,1.40
2023-04-05T02:54:42.945Z,1.30
2023-04-05T02:57:13.549Z,1.30
2023-04-05T02:59:44.236Z,1.50
2023-04-05T03:02:16.463Z,1.60
2023-04-05T03:04:47.171Z,1.30
2023-04-05T03:07:18.811Z,1.30
2023-04-05T03:09:50.067Z,1.40
2023-04-05T03:12:20.797Z,1.20
2023-04-05T03:14:51.478Z,0.90
2023-04-05T03:17:22.101Z,0.70
2023-04-05T03:19:52.846Z,0.60
2023-04-05T03:22:23.452Z,0.50
2023-04-05T03:24:54.091Z,0.50
2023-04-05T03:27:24.768Z,0.60
2023-04-05T03:29:55.499Z,0.80
2023-04-05T03:32:26.438Z,0.90
2023-04-05T03:34:57.253Z,0.90
2023-04-05T03:37:27.824Z,1.00
2023-04-05T03:39:59.228Z,1.00
2023-04-05T03:42:29.883Z,1.00
2023-04-05T03:45:00.754Z,0.80
2023-04-05T03:47:31.414Z,0.70
2023-04-05T03:50:02.813Z,0.70
2023-04-05T03:52:33.511Z,0.60
2023-04-05T03:55:04.288Z,0.50
2023-04-05T03:57:35.068Z,0.40
2023-04-05T04:00:12.562Z,0.50
2023-04-05T04:02:45.712Z,0.40
2023-04-05T04:05:37.002Z,0.40
2023-04-05T04:08:08.135Z,0.50
2023-04-05T04:10:38.907Z,0.60
2023-04-05T04:13:09.470Z,0.70
2023-04-05T04:15:40.397Z,0.70
2023-04-05T04:18:11.098Z,0.80
2023-04-05T04:20:41.952Z,0.80
2023-04-05T04:23:14.133Z,0.70
2023-04-05T04:25:46.359Z,0.50
2023-04-05T04:28:19.613Z,0.50
2023-04-05T04:30:50.349Z,0.40
2023-04-05T04:33:21.256Z,0.40
2023-04-05T04:35:53.587Z,0.20
2023-04-05T04:38:26.214Z,0.20
2023-04-05T04:40:58.376Z,0.20
2023-04-05T04:43:28.965Z,0.20
2023-04-05T04:46:01.070Z,0.20
2023-04-05T04:48:33.385Z,0.20
2023-04-05T04:51:05.533Z,-0.10
2023-04-05T04:53:36.232Z,-0.20
2023-04-05T04:56:10.504Z,0.10
2023-04-05T04:58:41.130Z,0.00
2023-04-05T05:01:12.274Z,0.00
2023-04-05T05:03:43.961Z,-0.10
2023-04-05T05:06:16.245Z,0.00
2023-04-05T05:08:47.431Z,0.10
2023-04-05T05:11:18.253Z,0.10
2023-04-05T05:13:53.169Z,0.10
2023-04-05T05:16:23.960Z,0.10
2023-04-05T05:18:54.737Z,0.00
2023-04-05T05:21:26.898Z,0.30
2023-04-05T05:23:57.663Z,0.50
2023-04-05T05:26:28.340Z,0.60
2023-04-05T05:29:02.988Z,0.70
2023-04-05T05:31:33.960Z,1.00
2023-04-05T05:34:04.787Z,0.80
2023-04-05T05:36:36.361Z,0.50
2023-04-05T05:39:08.086Z,0.40
2023-04-05T05:41:39.244Z,0.20
2023-04-05T05:44:10.229Z,0.20
2023-04-05T05:46:41.195Z,0.10
2023-04-05T05:49:12.472Z,0.10
2023-04-05T05:51:43.193Z,0.10
2023-04-05T05:54:13.818Z,0.10
2023-04-05T05:56:44.994Z,0.10
2023-04-05T05:59:15.935Z,0.30
2023-04-05T06:01:47.631Z,0.40
2023-04-05T06:04:19.320Z,0.50
2023-04-05T06:06:50.206Z,0.50
2023-04-05T06:09:21.708Z,0.40
2023-04-05T06:11:56.986Z,0.50
2023-04-05T06:14:27.320Z,0.50
2023-04-05T06:16:58.561Z,0.60
2023-04-05T06:19:29.219Z,0.40
2023-04-05T06:22:01.065Z,0.50
2023-04-05T06:24:32.670Z,0.70
2023-04-05T06:27:03.602Z,0.90
2023-04-05T06:29:34.489Z,1.20
2023-04-05T06:32:05.494Z,1.30
2023-04-05T06:34:36.614Z,1.40
2023-04-05T06:37:07.295Z,1.60
2023-04-05T06:39:37.990Z,1.80
2023-04-05T06:42:08.863Z,1.90
2023-04-05T06:44:39.607Z,2.10
2023-04-05T06:49:48.570Z,2.60
2023-04-05T06:52:19.285Z,2.70
2023-04-05T06:54:49.981Z,2.90
2023-04-05T06:57:20.804Z,2.90
2023-04-05T06:59:52.796Z,3.10
2023-04-05T07:02:23.627Z,3.30
2023-04-05T07:04:55.207Z,3.40
2023-04-05T07:07:25.964Z,3.50
2023-04-05T07:09:56.942Z,3.50
2023-04-05T07:12:27.778Z,3.50
2023-04-05T07:14:58.453Z,3.60
2023-04-05T07:17:29.299Z,3.90
2023-04-05T07:19:59.871Z,4.10
2023-04-05T07:22:30.653Z,4.10
2023-04-05T07:25:01.421Z,4.30
2023-04-05T07:27:32.343Z,4.50
2023-04-05T07:30:03.153Z,4.60
2023-04-05T07:32:35.825Z,4.60
2023-04-05T07:35:08.349Z,4.50
2023-04-05T07:37:38.977Z,4.50
2023-04-05T07:40:12.307Z,4.50
2023-04-05T07:42:43.108Z,4.70
2023-04-05T07:45:14.689Z,4.70
2023-04-05T07:47:46.361Z,4.90
2023-04-05T07:50:17.266Z,4.80
2023-04-05T07:52:47.944Z,4.80
2023-04-05T07:55:19.277Z,5.10
2023-04-05T07:57:50.055Z,5.20
2023-04-05T08:00:22.345Z,5.20
2023-04-05T08:02:53.120Z,5.50
2023-04-05T08:05:24.101Z,5.60
2023-04-05T08:07:56.103Z,5.60
2023-04-05T08:10:27.381Z,5.70
2023-04-05T08:12:58.087Z,6.10
2023-04-05T08:15:28.710Z,6.30
2023-04-05T08:17:59.432Z,6.20
2023-04-05T08:20:31.180Z,6.20
2023-04-05T08:23:01.861Z,6.20
2023-04-05T08:25:32.706Z,6.10
2023-04-05T08:28:03.278Z,6.00
2023-04-05T08:30:33.998Z,6.40
2023-04-05T08:33:05.039Z,6.40
2023-04-05T08:35:37.195Z,6.60
2023-04-05T08:38:09.113Z,6.80
2023-04-05T08:40:43.620Z,6.60
2023-04-05T08:43:20.177Z,6.40
2023-04-05T08:45:52.222Z,6.90
2023-04-05T08:48:23.326Z,7.20
2023-04-05T08:50:55.861Z,7.10
2023-04-05T08:53:26.597Z,7.40
2023-04-05T08:55:58.738Z,7.20
2023-04-05T08:58:29.940Z,7.50
2023-04-05T09:01:02.330Z,7.20
2023-04-05T09:03:37.107Z,7.40
2023-04-05T09:06:12.135Z,7.30
2023-04-05T09:08:43.075Z,7.80
2023-04-05T09:11:15.497Z,7.60
2023-04-05T09:13:46.134Z,7.70
2023-04-05T09:16:18.016Z,7.80
2023-04-05T09:18:49.619Z,7.80
2023-04-05T09:21:20.729Z,8.20
2023-04-05T09:24:03.313Z,8.30
2023-04-05T09:26:34.282Z,8.30
2023-04-05T09:29:04.953Z,8.50
2023-04-05T09:31:37.840Z,8.70
2023-04-05T09:34:09.032Z,8.90
2023-04-05T09:36:42.531Z,8.70
2023-04-05T09:39:13.162Z,8.90
2023-04-05T09:41:43.785Z,8.80
2023-04-05T09:44:14.393Z,8.70
2023-04-05T09:46:45.117Z,8.70
2023-04-05T09:49:15.822Z,8.20
2023-04-05T09:51:47.326Z,8.40
2023-04-05T09:54:19.012Z,9.00
2023-04-05T09:56:58.518Z,9.60
2023-04-05T09:59:29.921Z,9.80
2023-04-05T10:02:00.878Z,9.90
2023-04-05T10:04:41.606Z,10.00
2023-04-05T10:07:14.443Z,9.90
2023-04-05T10:09:46.804Z,10.00
2023-04-05T10:12:21.728Z,10.30
2023-04-05T10:14:52.617Z,10.30
2023-04-05T10:17:27.688Z,10.30
2023-04-05T10:20:20.578Z,10.30
2023-04-05T10:23:05.121Z,10.10
2023-04-05T10:25:46.691Z,10.00
2023-04-05T10:28:21.846Z,10.00
2023-04-05T10:30:55.754Z,10.30
2023-04-05T10:36:10.991Z,10.00
2023-04-05T10:41:26.358Z,10.10
2023-04-05T10:43:59.266Z,10.80
2023-04-05T10:46:32.050Z,11.40
2023-04-05T10:49:06.758Z,11.20
2023-04-05T10:51:39.351Z,11.20
2023-04-05T10:54:12.930Z,11.30
2023-04-05T10:56:44.860Z,11.30
2023-04-05T10:59:17.578Z,10.90
2023-04-05T11:01:49.928Z,11.30
2023-04-05T11:04:21.680Z,11.50
2023-04-05T11:07:13.006Z,11.30
2023-04-05T11:09:53.510Z,11.50
2023-04-05T11:12:42.785Z,11.90
2023-04-05T11:15:34.261Z,11.40
2023-04-05T11:18:10.810Z,11.70
2023-04-05T11:20:51.947Z,12.10
2023-04-05T11:23:25.452Z,12.10
2023-04-05T11:25:59.864Z,11.90
2023-04-05T11:28:39.716Z,11.80
2023-04-05T11:31:19.510Z,11.80
2023-04-05T11:34:11.181Z,11.30
2023-04-05T11:36:45.530Z,11.70
2023-04-05T11:39:29.493Z,12.00
2023-04-05T11:42:02.980Z,11.80
2023-04-05T11:44:54.676Z,12.10
2023-04-05T11:47:25.819Z,11.70
2023-04-05T11:49:57.289Z,12.20
2023-04-05T11:52:28.108Z,12.50
2023-04-05T11:55:00.175Z,12.40
2023-04-05T11:57:31.349Z,12.60
2023-04-05T12:00:02.118Z,12.70
2023-04-05T12:02:36.808Z,13.20
2023-04-05T12:05:08.960Z,13.70
2023-04-05T12:07:39.656Z,13.50
2023-04-05T12:10:14.898Z,12.90
2023-04-05T12:12:47.903Z,12.70
2023-04-05T12:15:19.111Z,12.90
2023-04-05T12:17:51.304Z,12.90
2023-04-05T12:20:24.840Z,13.40
2023-04-05T12:22:57.258Z,13.80
2023-04-05T12:25:28.496Z,14.00
2023-04-05T12:28:00.598Z,13.90
2023-04-05T12:30:33.577Z,13.40
2023-04-05T12:33:11.519Z,12.30
2023-04-05T12:35:43.909Z,12.70
2023-04-05T12:38:17.792Z,13.60
2023-04-05T12:40:48.587Z,13.70
2023-04-05T12:43:20.608Z,13.30
2023-04-05T12:45:52.831Z,13.50
2023-04-05T12:48:26.177Z,13.60
2023-04-05T12:50:56.831Z,14.10
2023-04-05T12:53:29.506Z,14.90
2023-04-05T12:56:02.037Z,14.30
2023-04-05T12:58:37.847Z,14.20
2023-04-05T13:01:10.753Z,13.70
2023-04-05T13:03:43.120Z,13.90
2023-04-05T13:06:14.099Z,14.40
2023-04-05T13:08:44.824Z,14.90
2023-04-05T13:11:15.643Z,15.00
2023-04-05T13:13:46.308Z,15.10
2023-04-05T13:16:17.043Z,14.50
2023-04-05T13:18:47.804Z,14.20
2023-04-05T13:21:18.770Z,14.40
2023-04-05T13:23:49.480Z,13.50
2023-04-05T13:26:20.184Z,13.70
2023-04-05T13:28:50.934Z,14.00
2023-04-05T13:31:22.036Z,14.30
2023-04-05T13:33:53.208Z,14.40
2023-04-05T13:36:23.879Z,15.40
2023-04-05T13:38:54.863Z,15.50
2023-04-05T13:41:25.904Z,15.40
2023-04-05T13:43:56.808Z,15.30
2023-04-05T13:46:27.481Z,15.00
2023-04-05T13:48:58.151Z,15.80
2023-04-05T13:51:31.484Z,14.80
2023-04-05T13:54:02.182Z,14.90
2023-04-05T13:56:32.822Z,15.70
2023-04-05T13:59:03.551Z,15.90
2023-04-05T14:01:35.822Z,15.60
2023-04-05T14:04:06.597Z,15.40
2023-04-05T14:06:37.404Z,15.30
2023-04-05T14:09:08.602Z,15.10
2023-04-05T14:11:40.783Z,15.40
2023-04-05T14:14:11.392Z,15.80
2023-04-05T14:16:42.563Z,15.60
2023-04-05T14:19:13.533Z,15.20
2023-04-05T14:21:44.429Z,14.70
2023-04-05T14:24:15.823Z,14.70
2023-04-05T14:26:48.175Z,15.60
2023-04-05T14:29:19.491Z,16.30
2023-04-05T14:31:50.557Z,15.40
2023-04-05T14:34:21.268Z,15.10
2023-04-05T14:36:51.992Z,15.30
2023-04-05T14:39:22.835Z,16.10
2023-04-05T14:41:54.274Z,16.20
2023-04-05T14:44:26.546Z,15.10
2023-04-05T14:46:57.280Z,14.60
2023-04-05T14:49:27.931Z,14.30
2023-04-05T14:51:58.685Z,15.20
2023-04-05T14:54:29.442Z,15.10
2023-04-05T14:57:00.564Z,14.40
2023-04-05T14:59:32.037Z,15.30
2023-04-05T15:02:03.208Z,15.00
2023-04-05T15:04:34.290Z,15.20
2023-04-05T15:07:05.042Z,15.40
2023-04-05T15:09:36.167Z,15.40
2023-04-05T15:12:07.618Z,15.30
2023-04-05T15:14:38.272Z,16.20
2023-04-05T15:17:09.053Z,14.90
2023-04-05T15:19:40.055Z,15.70
2023-04-05T15:22:11.158Z,16.70
2023-04-05T15:24:43.160Z,15.90
2023-04-05T15:27:13.930Z,15.10
2023-04-05T15:29:44.798Z,14.40
2023-04-05T15:32:15.508Z,14.30
2023-04-05T15:34:46.312Z,14.60
2023-04-05T15:37:17.694Z,14.40
2023-04-05T15:39:48.529Z,15.20
2023-04-05T15:42:21.078Z,14.30
2023-04-05T15:44:52.278Z,14.00
2023-04-05T15:47:23.012Z,13.30
2023-04-05T15:49:53.963Z,13.00
2023-04-05T15:52:24.932Z,12.70
2023-04-05T15:54:55.836Z,12.20
2023-04-05T15:57:26.665Z,12.00
2023-04-05T15:59:57.416Z,12.10
2023-04-05T16:02:28.588Z,11.70
2023-04-05T16:04:59.554Z,11.50
2023-04-05T16:07:30.225Z,11.50
2023-04-05T16:10:01.044Z,11.20
2023-04-05T16:12:31.914Z,11.20
2023-04-05T16:15:02.672Z,11.30
2023-04-05T16:17:33.613Z,11.10
2023-04-05T16:20:04.562Z,11.10
2023-04-05T16:22:35.538Z,11.20
2023-04-05T16:25:07.616Z,11.10
2023-04-05T16:27:39.027Z,10.90
2023-04-05T16:30:12.245Z,10.70
2023-04-05T16:32:42.975Z,10.60
2023-04-05T16:35:13.720Z,10.60
2023-04-05T16:37:44.424Z,10.50
2023-04-05T16:40:16.018Z,10.60
2023-04-05T16:42:47.219Z,10.40
2023-04-05T16:45:18.236Z,10.10
2023-04-05T16:47:49.196Z,10.20
2023-04-05T16:50:20.405Z,10.20
2023-04-05T16:52:51.472Z,10.10
2023-04-05T16:55:22.789Z,10.10
2023-04-05T16:57:55.562Z,10.40
2023-04-05T17:00:29.453Z,10.30
2023-04-05T17:03:00.271Z,10.20
2023-04-05T17:05:49.941Z,10.20
2023-04-05T17:08:20.769Z,10.00
2023-04-05T17:10:51.690Z,10.00
2023-04-05T17:13:22.390Z,9.70
2023-04-05T17:15:53.190Z,9.60
2023-04-05T17:18:24.118Z,9.60
2023-04-05T17:20:55.887Z,9.50
2023-04-05T17:23:27.417Z,9.40
2023-04-05T17:25:58.352Z,9.30
2023-04-05T17:28:29.109Z,9.00
2023-04-05T17:31:04.017Z,8.90
2023-04-05T17:33:34.932Z,8.90
2023-04-05T17:36:06.440Z,9.10
2023-04-05T17:38:37.531Z,9.00
2023-04-05T17:41:08.366Z,8.90
2023-04-05T17:43:39.176Z,8.70
2023-04-05T17:46:12.002Z,8.70
2023-04-05T17:48:43.426Z,8.50
2023-04-05T17:51:14.524Z,8.70
2023-04-05T17:53:45.777Z,8.80
2023-04-05T17:56:16.705Z,8.50
2023-04-05T17:58:47.500Z,8.40
2023-04-05T18:01:18.581Z,8.10
2023-04-05T18:03:49.366Z,8.00
2023-04-05T18:06:20.364Z,7.80
2023-04-05T18:08:51.677Z,7.70
2023-04-05T18:11:22.658Z,7.70
2023-04-05T18:13:53.742Z,7.70
2023-04-05T18:16:24.778Z,7.50
2023-04-05T18:18:56.364Z,7.40
2023-04-05T18:21:27.459Z,7.30
2023-04-05T18:23:58.329Z,7.30
2023-04-05T18:26:29.564Z,7.20
2023-04-05T18:29:00.661Z,7.10
2023-04-05T18:31:32.557Z,7.20
2023-04-05T18:34:05.698Z,7.30
2023-04-05T18:36:38.537Z,7.40
2023-04-05T18:39:10.796Z,7.50
2023-04-05T18:41:43.129Z,7.40
2023-04-05T18:44:14.497Z,7.20
2023-04-05T18:46:46.050Z,7.10
2023-04-05T18:49:19.213Z,7.20
2023-04-05T18:51:50.462Z,7.30
2023-04-05T18:54:21.859Z,7.30
2023-04-05T18:56:53.089Z,7.20
2023-04-05T18:59:24.630Z,7.10
2023-04-05T19:01:56.358Z,7.20
2023-04-05T19:04:28.127Z,7.20
2023-04-05T19:07:00.284Z,7.30
2023-04-05T19:09:32.671Z,7.30
2023-04-05T19:12:23.839Z,7.30
2023-04-05T19:14:54.554Z,7.30
2023-04-05T19:17:26.406Z,7.10
2023-04-05T19:19:58.635Z,7.10
2023-04-05T19:22:31.876Z,7.20
2023-04-05T19:25:03.429Z,7.40
2023-04-05T19:27:35.403Z,7.10
2023-04-05T19:30:08.681Z,6.70
2023-04-05T19:32:40.664Z,6.90
2023-04-05T19:35:13.796Z,7.00
2023-04-05T19:37:45.549Z,7.10
2023-04-05T19:40:17.037Z,7.10
2023-04-05T19:42:49.821Z,6.90
2023-04-05T19:45:24.745Z,6.90
2023-04-05T19:47:58.026Z,7.10
2023-04-05T19:53:44.793Z,7.80
2023-04-05T19:56:18.746Z,7.80
2023-04-05T19:58:53.225Z,7.70
2023-04-05T20:01:38.098Z,7.80
2023-04-05T20:04:14.014Z,7.70
2023-04-05T20:06:48.750Z,7.60
2023-04-05T20:09:20.474Z,7.60
2023-04-05T20:11:54.521Z,7.80
2023-04-05T20:14:28.909Z,7.90
2023-04-05T20:19:33.241Z,7.80
2023-04-05T20:22:06.719Z,7.20
2023-04-05T20:24:40.200Z,6.90
2023-04-05T20:27:14.739Z,6.80
2023-04-05T20:29:46.418Z,6.50
2023-04-05T20:32:18.737Z,6.60
2023-04-05T20:34:50.576Z,6.20
2023-04-05T20:37:21.426Z,6.60
2023-04-05T20:39:54.117Z,6.10
2023-04-05T20:42:26.023Z,5.80
2023-04-05T20:44:57.363Z,5.70
2023-04-05T20:47:28.130Z,5.80
2023-04-05T20:49:58.952Z,5.90
2023-04-05T20:52:30.057Z,5.60
2023-04-05T20:55:01.899Z,5.50
2023-04-05T20:57:32.798Z,5.10
2023-04-05T21:00:04.117Z,5.10
2023-04-05T21:02:34.951Z,5.20
2023-04-05T21:05:06.074Z,5.10
2023-04-05T21:07:37.175Z,4.90
2023-04-05T21:10:10.635Z,4.90
2023-04-05T21:12:41.672Z,4.80
2023-04-05T21:15:13.361Z,5.00
2023-04-05T21:17:44.100Z,5.00
2023-04-05T21:20:15.584Z,5.10
2023-04-05T21:22:46.304Z,5.10
2023-04-05T21:25:16.993Z,5.10
2023-04-05T21:27:47.840Z,5.10
2023-04-05T21:30:19.556Z,5.10
2023-04-05T21:32:51.442Z,5.00
2023-04-05T21:35:22.856Z,4.80
2023-04-05T21:37:53.638Z,4.70
2023-04-05T21:40:24.611Z,4.60
2023-04-05T21:42:55.419Z,4.60
2023-04-05T21:45:26.486Z,4.60
2023-04-05T21:47:57.301Z,4.60
2023-04-05T21:50:28.137Z,4.40
2023-04-05T21:52:58.994Z,4.40
2023-04-05T21:55:29.654Z,4.40
2023-04-05T21:58:00.361Z,4.40
2023-04-05T22:00:31.295Z,4.40
2023-04-05T22:03:02.108Z,4.30
2023-04-05T22:05:38.181Z,4.20
2023-04-05T22:08:06.050Z,4.20
2023-04-05T22:10:37.516Z,4.30
2023-04-05T22:13:08.237Z,4.30
2023-04-05T22:15:39.009Z,4.40
2023-04-05T22:18:09.903Z,4.60
2023-04-05T22:20:40.714Z,4.60
2023-04-05T22:23:11.535Z,4.60
2023-04-05T22:25:42.345Z,4.30
2023-04-05T22:28:13.076Z,4.20
2023-04-05T22:30:44.544Z,4.30
2023-04-05T22:33:15.509Z,4.30
2023-04-05T22:35:46.245Z,4.20
2023-04-05T22:38:17.076Z,3.90
2023-04-05T22:40:47.925Z,3.80
2023-04-05T22:43:18.650Z,3.70
2023-04-05T22:45:51.092Z,3.50
2023-04-05T22:48:22.455Z,3.50
2023-04-05T22:50:53.218Z,3.60
2023-04-05T22:53:24.603Z,3.50
2023-04-05T22:55:55.513Z,3.40
2023-04-05T22:58:27.226Z,3.40
2023-04-05T23:00:58.131Z,3.30
2023-04-05T23:03:28.915Z,3.30
2023-04-05T23:05:59.717Z,3.50
2023-04-05T23:08:30.377Z,3.50
2023-04-05T23:11:01.418Z,3.60
2023-04-05T23:13:32.171Z,3.70
2023-04-05T23:16:02.910Z,3.60
2023-04-05T23:18:33.741Z,3.60
2023-04-05T23:21:04.588Z,3.50
2023-04-05T23:23:35.825Z,3.50
2023-04-05T23:26:06.921Z,3.50
2023-04-05T23:28:37.709Z,3.50
2023-04-05T23:31:08.569Z,3.50
2023-04-05T23:33:39.315Z,3.50
2023-04-05T23:36:11.898Z,3.50
2023-04-05T23:38:42.734Z,3.50
2023-04-05T23:41:13.481Z,3.40
2023-04-05T23:43:44.167Z,3.40
2023-04-05T23:46:14.867Z,3.20
2023-04-05T23:48:45.617Z,3.10
2023-04-05T23:51:16.372Z,3.10
2023-04-05T23:53:47.078Z,3.10
2023-04-05T23:56:17.987Z,3.20
2023-04-05T23:58:48.707Z,3.40
